CMA CGM Tosca — FMEL — position and weather

sailwx.info

Track history (hours):
 
Tides and Currents Weather Stations Pressure Air Temp Water Temp Dewpoint Dewpoint Depression Visibility Wind Speed Wind Dir Waves Ship Positions

CMA CGM Tosca

Last reported at 2017-Aug-22 02:22 UTC. Time now 2017-Aug-22 20:37 UTC.
Position N 35°41' E 015°21'.

Length 334 m; draft 10.6 m.

Type: Cargo ship. MMSI: 228335900.

Date/timePositionNaut miles runAvg speedWind from/ knotsBaromVisibWave heightAir tempDewpointWater temp
2017-Aug-22 02:22N 35°41' E 015°21'819.7
2017-Aug-22 01:59N 35°44' E 015°13'1219.3
2017-Aug-22 01:21N 35°50' E 014°59'412.7
2017-Aug-22 01:00N 35°51' E 014°55'0 0.3
2017-Aug-22 00:30N 35°51' E 014°55'0 0.0
2017-Aug-22 00:00N 35°51' E 014°55'0 0.0
2017-Aug-21 23:30N 35°51' E 014°55'0 0.0
2017-Aug-21 23:00N 35°51' E 014°55'0 0.0
2017-Aug-21 22:30N 35°51' E 014°55'0 0.0
2017-Aug-21 22:00N 35°51' E 014°55'0 0.0
2017-Aug-21 21:24N 35°51' E 014°55'0 0.0
2017-Aug-21 20:57N 35°51' E 014°55'0 0.0
2017-Aug-21 20:30N 35°51' E 014°55'0 0.0
2017-Aug-21 19:57N 35°51' E 014°55'0 0.0
2017-Aug-21 19:30N 35°51' E 014°55'0 0.0
2017-Aug-21 19:00N 35°51' E 014°55'0 0.0
2017-Aug-21 18:30N 35°51' E 014°55'0 0.1
2017-Aug-21 18:00N 35°51' E 014°54'0 0.0
2017-Aug-21 17:21N 35°51' E 014°54'0 0.1
2017-Aug-21 16:57N 35°51' E 014°54'0 0.0
2017-Aug-21 16:30N 35°51' E 014°54'0 0.0
2017-Aug-21 16:00N 35°51' E 014°54'0 0.0
2017-Aug-21 15:27N 35°51' E 014°54'0 0.0
2017-Aug-21 14:57N 35°51' E 014°54'0 0.1
2017-Aug-21 14:30N 35°51' E 014°54'0 0.0
2017-Aug-21 14:00N 35°51' E 014°54'0 0.0
2017-Aug-21 13:30N 35°51' E 014°54'0 0.0
2017-Aug-21 13:00N 35°51' E 014°54'0 0.1
2017-Aug-21 12:30N 35°51' E 014°54'3 5.8
2017-Aug-21 12:00N 35°48' E 014°56'5 8.6
2017-Aug-21 11:27N 35°46' E 014°51'613.1
2017-Aug-21 11:00N 35°46' E 014°43'613.2
2017-Aug-21 10:30N 35°47' E 014°36'3 6.5
2017-Aug-21 10:00N 35°49' E 014°32'0 0.1
2017-Aug-21 09:29N 35°49' E 014°32'0 0.0
2017-Aug-21 06:02N 35°49' E 014°32'0 0.0
2017-Aug-21 05:44N 35°49' E 014°32'0 0.0
2017-Aug-21 05:29N 35°49' E 014°32'0 0.0
2017-Aug-21 00:26N 35°49' E 014°32'0 0.6
2017-Aug-21 00:00N 35°49' E 014°32'3 5.4
2017-Aug-20 23:30N 35°48' E 014°35'2 4.0
2017-Aug-20 23:00N 35°46' E 014°36'510.2
2017-Aug-20 22:29N 35°41' E 014°36'5 0.6
2017-Aug-20 14:13N 35°42' E 014°30'1 3.6
2017-Aug-20 14:00N 35°43' E 014°29'4 7.3
2017-Aug-20 13:30N 35°44' E 014°25'5 9.9
2017-Aug-20 13:00N 35°46' E 014°20'713.2
2017-Aug-20 12:30N 35°49' E 014°12'714.8
2017-Aug-20 12:00N 35°52' E 014°04'715.1
2017-Aug-20 11:30N 35°55' E 013°56'814.9
2017-Aug-20 10:59N 35°60' E 013°48'815.4
2017-Aug-20 10:30N 36°06' E 013°42'815.3
2017-Aug-20 10:00N 36°11' E 013°36'815.1
2017-Aug-20 09:30N 36°17' E 013°30'815.3
2017-Aug-20 09:00N 36°23' E 013°24'815.3
2017-Aug-20 08:30N 36°29' E 013°18'815.2
2017-Aug-20 08:00N 36°35' E 013°12'715.2
2017-Aug-20 07:30N 36°41' E 013°06'815.2
2017-Aug-20 07:00N 36°47' E 013°00'815.6
2017-Aug-20 06:30N 36°53' E 012°54'816.4
2017-Aug-20 06:00N 36°59' E 012°48'816.2
2017-Aug-20 05:30N 37°05' E 012°41'816.3
2017-Aug-20 05:00N 37°12' E 012°35'816.3
2017-Aug-20 04:30N 37°18' E 012°28'816.0
2017-Aug-20 04:00N 37°24' E 012°22'815.9
2017-Aug-20 03:30N 37°31' E 012°16'816.7
2017-Aug-20 03:00N 37°38' E 012°10'817.0
2017-Aug-20 02:30N 37°44' E 012°04'916.9
2017-Aug-20 01:58N 37°52' E 011°57'816.6
2017-Aug-20 01:29N 37°59' E 011°52'1016.4
2017-Aug-20 00:53N 38°08' E 011°47'616.1
2017-Aug-20 00:30N 38°13' E 011°45'816.2
2017-Aug-20 00:00N 38°21' E 011°42'816.1
2017-Aug-19 23:29N 38°29' E 011°38'816.2
2017-Aug-19 22:59N 38°37' E 011°34'816.1
2017-Aug-19 22:30N 38°44' E 011°31'816.0
2017-Aug-19 22:00N 38°52' E 011°28'815.9
2017-Aug-19 21:30N 38°59' E 011°25'815.9
2017-Aug-19 21:00N 39°07' E 011°21'815.9
2017-Aug-19 20:31N 39°14' E 011°18'815.9
2017-Aug-19 20:00N 39°22' E 011°15'816.0
2017-Aug-19 19:30N 39°29' E 011°11'816.1
2017-Aug-19 19:00N 39°37' E 011°08'816.1
2017-Aug-19 18:30N 39°44' E 011°04'816.0
2017-Aug-19 18:00N 39°52' E 011°01'816.0
2017-Aug-19 17:30N 39°60' E 010°58'816.2
2017-Aug-19 17:00N 40°07' E 010°54'816.0
2017-Aug-19 16:30N 40°15' E 010°51'816.1
2017-Aug-19 16:00N 40°22' E 010°47'816.2
2017-Aug-19 15:30N 40°30' E 010°44'816.1
2017-Aug-19 15:00N 40°38' E 010°40'2916.9
2017-Aug-19 13:18N 41°05' E 010°28'517.8
2017-Aug-19 13:00N 41°10' E 010°26'917.9
2017-Aug-19 12:30N 41°18' E 010°22'917.6
2017-Aug-19 12:00N 41°27' E 010°18'917.5
2017-Aug-19 11:30N 41°35' E 010°14'1017.5
2017-Aug-19 10:58N 41°44' E 010°10'817.4
2017-Aug-19 10:30N 41°51' E 010°06'1017.4
2017-Aug-19 09:57N 42°01' E 010°02'817.4
2017-Aug-19 09:30N 42°08' E 009°58'917.7
2017-Aug-19 09:00N 42°16' E 009°53'917.6
2017-Aug-19 08:28N 42°25' E 009°51'817.6
2017-Aug-19 08:00N 42°33' E 009°47'1017.9
2017-Aug-19 07:27N 42°42' E 009°41'817.5
2017-Aug-19 07:00N 42°49' E 009°39'817.0
2017-Aug-19 06:30N 42°58' E 009°36'816.9
2017-Aug-19 06:00N 43°06' E 009°34'816.3
2017-Aug-19 05:30N 43°13' E 009°30'816.4
2017-Aug-19 05:00N 43°21' E 009°26'816.7
2017-Aug-19 04:30N 43°29' E 009°22'816.3
2017-Aug-19 04:00N 43°37' E 009°18'816.0
2017-Aug-19 03:30N 43°44' E 009°15'815.9
2017-Aug-19 03:00N 43°52' E 009°11'815.9
2017-Aug-19 02:30N 43°59' E 009°06'815.5
2017-Aug-19 02:00N 44°07' E 009°04'713.2
2017-Aug-19 01:30N 44°13' E 009°01'713.3
2017-Aug-19 01:00N 44°19' E 008°58'510.1
2017-Aug-19 00:30N 44°24' E 008°55'1 1.1
2017-Aug-18 23:58N 44°24' E 008°55'0 0.0
2017-Aug-18 23:28N 44°24' E 008°55'0 0.0
2017-Aug-18 22:58N 44°24' E 008°55'0 0.0
2017-Aug-18 22:22N 44°24' E 008°55'0 0.0
2017-Aug-18 21:58N 44°24' E 008°55'0 0.0
2017-Aug-18 21:28N 44°24' E 008°55'0 0.0
2017-Aug-18 20:58N 44°24' E 008°55'0 0.0
2017-Aug-18 20:28N 44°24' E 008°55'0 0.0
2017-Aug-18 19:58N 44°24' E 008°55'0 0.0
2017-Aug-18 19:28N 44°24' E 008°55'0 0.0
2017-Aug-18 18:55N 44°24' E 008°55'0 0.0
2017-Aug-18 18:28N 44°24' E 008°55'0 0.0
2017-Aug-18 17:58N 44°24' E 008°55'0 0.0
2017-Aug-18 17:28N 44°24' E 008°55'0 0.0
2017-Aug-18 16:55N 44°24' E 008°55'0 0.0
2017-Aug-18 16:28N 44°24' E 008°55'0 0.0
2017-Aug-18 15:58N 44°24' E 008°55'0 0.0
2017-Aug-18 15:28N 44°24' E 008°55'0 0.0
2017-Aug-18 14:58N 44°24' E 008°55'0 0.0
2017-Aug-18 14:28N 44°24' E 008°55'0 0.0
2017-Aug-18 13:28N 44°24' E 008°55'0 0.0
2017-Aug-18 12:58N 44°24' E 008°55'0 0.0
2017-Aug-18 12:28N 44°24' E 008°55'0 0.0
2017-Aug-18 11:58N 44°24' E 008°55'0 0.0
2017-Aug-18 11:28N 44°24' E 008°55'0 0.0
2017-Aug-18 10:58N 44°24' E 008°55'0 0.0
2017-Aug-18 10:28N 44°24' E 008°55'0 0.0
2017-Aug-18 09:58N 44°24' E 008°55'0 0.0
2017-Aug-18 09:28N 44°24' E 008°55'0 0.0
2017-Aug-18 08:58N 44°24' E 008°55'0 0.0
2017-Aug-18 08:28N 44°24' E 008°55'0 0.0
2017-Aug-18 07:58N 44°24' E 008°55'0 0.0
2017-Aug-18 07:28N 44°24' E 008°55'0 0.0
2017-Aug-18 06:55N 44°24' E 008°55'0 0.0
2017-Aug-18 06:28N 44°24' E 008°55'0 0.0
2017-Aug-18 05:58N 44°24' E 008°55'0 0.0
2017-Aug-18 05:25N 44°24' E 008°55'0 0.0
2017-Aug-18 04:55N 44°24' E 008°55'0 0.0
2017-Aug-18 04:28N 44°24' E 008°55'0 0.6
2017-Aug-18 04:00N 44°24' E 008°55'2 3.9
2017-Aug-18 03:30N 44°23' E 008°57'2 4.2
2017-Aug-18 03:00N 44°21' E 008°58'510.2
2017-Aug-18 02:30N 44°16' E 008°57'612.0
2017-Aug-18 02:00N 44°10' E 008°55'713.1
2017-Aug-18 01:30N 44°04' E 008°52'713.3
2017-Aug-18 01:00N 43°59' E 008°47'713.1
2017-Aug-18 00:30N 43°53' E 008°41'613.0
2017-Aug-18 00:00N 43°48' E 008°36'612.9
2017-Aug-17 23:30N 43°43' E 008°31'612.9
2017-Aug-17 23:00N 43°38' E 008°26'613.0
2017-Aug-17 22:30N 43°32' E 008°20'713.1
2017-Aug-17 22:00N 43°27' E 008°15'713.1
2017-Aug-17 21:30N 43°22' E 008°09'713.1
2017-Aug-17 21:00N 43°17' E 008°03'713.0
2017-Aug-17 20:30N 43°14' E 007°56'612.9
2017-Aug-17 20:00N 43°10' E 007°48'713.1
2017-Aug-17 19:30N 43°07' E 007°41'713.1
2017-Aug-17 19:00N 43°04' E 007°33'713.0
2017-Aug-17 18:30N 43°00' E 007°25'714.0
2017-Aug-17 18:00N 42°56' E 007°17'714.0
2017-Aug-17 17:31N 42°52' E 007°10'713.8
2017-Aug-17 17:00N 42°49' E 007°02'713.9
2017-Aug-17 16:30N 42°45' E 006°54'713.7
2017-Aug-17 16:01N 42°41' E 006°46'713.2
2017-Aug-17 15:31N 42°36' E 006°39'714.2
2017-Aug-17 15:00N 42°32' E 006°32'714.5
2017-Aug-17 14:30N 42°27' E 006°24'714.3
2017-Aug-17 14:00N 42°23' E 006°17'714.3
2017-Aug-17 13:30N 42°19' E 006°09'714.5
2017-Aug-17 13:00N 42°14' E 006°01'714.6
2017-Aug-17 12:30N 42°10' E 005°54'714.4
2017-Aug-17 12:01N 42°05' E 005°46'714.3
2017-Aug-17 11:31N 42°01' E 005°39'714.3
2017-Aug-17 11:01N 41°56' E 005°31'714.1
2017-Aug-17 10:30N 41°52' E 005°24'714.1
2017-Aug-17 10:01N 41°47' E 005°16'714.0
2017-Aug-17 09:30N 41°43' E 005°09'713.9
2017-Aug-17 09:01N 41°39' E 005°02'713.4
2017-Aug-17 08:27N 41°34' E 004°54'613.8
2017-Aug-17 08:00N 41°30' E 004°47'6414.1
2017-Aug-17 03:29N 40°51' E 003°41'714.3
2017-Aug-17 03:00N 40°47' E 003°34'714.3
2017-Aug-17 02:30N 40°42' E 003°26'714.2
2017-Aug-17 02:00N 40°38' E 003°19'714.3
2017-Aug-17 01:29N 40°33' E 003°11'714.1
2017-Aug-17 01:00N 40°29' E 003°04'713.8
2017-Aug-17 00:30N 40°25' E 002°57'713.8
2017-Aug-17 00:00N 40°21' E 002°50'713.8
2017-Aug-16 23:30N 40°16' E 002°43'713.7
2017-Aug-16 23:00N 40°12' E 002°36'714.0
2017-Aug-16 22:30N 40°07' E 002°29'714.1
2017-Aug-16 22:00N 40°03' E 002°22'714.1
2017-Aug-16 21:30N 39°59' E 002°14'714.2
2017-Aug-16 21:00N 39°54' E 002°07'714.1
2017-Aug-16 20:30N 39°50' E 001°60'714.0
2017-Aug-16 20:00N 39°46' E 001°53'714.1
2017-Aug-16 19:30N 39°41' E 001°46'714.2
2017-Aug-16 19:00N 39°37' E 001°38'714.2
2017-Aug-16 18:30N 39°32' E 001°31'714.3
2017-Aug-16 18:00N 39°28' E 001°24'814.3
2017-Aug-16 17:25N 39°23' E 001°15'614.0
2017-Aug-16 17:00N 39°19' E 001°09'714.0
2017-Aug-16 16:30N 39°15' E 001°02'713.8
2017-Aug-16 16:00N 39°10' E 000°55'1 1.5
2017-Aug-16 15:30N 39°11' E 000°55'712.9
2017-Aug-16 15:00N 39°07' E 000°49'713.5
2017-Aug-16 14:30N 39°01' E 000°44'713.6
2017-Aug-16 14:00N 38°55' E 000°40'813.5
2017-Aug-16 13:26N 38°49' E 000°35'913.7
2017-Aug-16 12:47N 38°41' E 000°28'613.9
2017-Aug-16 12:21N 38°36' E 000°24'614.4
2017-Aug-16 11:55N 38°31' E 000°20'718.2
2017-Aug-16 11:30N 38°26' E 000°13'1019.7
2017-Aug-16 11:00N 38°17' E 000°07'1019.7
2017-Aug-16 10:30N 38°09' W 000°00'1019.9
2017-Aug-16 10:00N 38°01' W 000°08'1020.0
2017-Aug-16 09:30N 37°53' W 000°15'1019.8
2017-Aug-16 09:00N 37°44' W 000°22'1020.0
2017-Aug-16 08:30N 37°36' W 000°28'1019.8
2017-Aug-16 08:00N 37°29' W 000°37'1020.2
2017-Aug-16 07:30N 37°22' W 000°47'1020.8
2017-Aug-16 07:00N 37°16' W 000°57'1019.3
2017-Aug-16 06:29N 37°08' W 001°06'20618.6
2017-Aug-15 19:25N 35°60' W 005°08'819.9
2017-Aug-15 19:01N 35°59' W 005°18'816.9
2017-Aug-15 18:31N 35°58' W 005°28'8 0.6
2017-Aug-15 05:43N 35°54' W 005°37'1 4.5
2017-Aug-15 05:30N 35°54' W 005°38'9 5.5
2017-Aug-15 03:49N 35°54' W 005°49'2 8.0
2017-Aug-15 03:30N 35°53' W 005°52'7 7.8
2017-Aug-15 02:39N 35°52' W 006°00'3 0.1
2017-Aug-13 22:52N 35°52' W 006°05'612.2
2017-Aug-13 22:25N 35°56' W 006°00'813.1
2017-Aug-13 21:49N 35°57' W 005°51'510.2
2017-Aug-13 21:22N 35°57' W 005°45'3 8.4
2017-Aug-13 21:00N 35°57' W 005°41'5 8.7
2017-Aug-13 20:27N 35°57' W 005°35'4 9.4
2017-Aug-13 20:01N 35°59' W 005°30'612.0
2017-Aug-13 19:30N 36°00' W 005°23'816.5
2017-Aug-13 19:01N 36°01' W 005°13'815.3
2017-Aug-13 18:30N 36°02' W 005°04'4 2.0
2017-Aug-13 16:29N 35°58' W 005°05'817.5
2017-Aug-13 16:00N 35°58' W 005°15'816.5
2017-Aug-13 15:30N 35°57' W 005°25'813.5
2017-Aug-13 14:55N 35°55' W 005°35'2 2.9
2017-Aug-13 14:04N 35°54' W 005°37'0 3.4
2017-Aug-13 14:00N 35°54' W 005°38'2 3.3
2017-Aug-13 13:29N 35°54' W 005°40'1 2.9
2017-Aug-13 13:00N 35°53' W 005°41'5 3.9
2017-Aug-13 11:48N 35°54' W 005°47'712.5
2017-Aug-13 11:16N 35°55' W 005°55'2 7.0
2017-Aug-13 10:59N 35°53' W 005°57'3 0.5
2017-Aug-13 04:50N 35°52' W 006°01'4 8.5
2017-Aug-13 04:24N 35°52' W 006°06'6 0.4
2017-Aug-12 13:20N 35°57' W 005°60'813.3
2017-Aug-12 12:42N 35°57' W 005°49'313.8
2017-Aug-12 12:30N 35°57' W 005°46'912.5
2017-Aug-12 11:47N 35°57' W 005°35'311.8
2017-Aug-12 11:30N 35°58' W 005°31'611.4
2017-Aug-12 11:00N 35°60' W 005°24'612.0
2017-Aug-12 10:30N 36°01' W 005°17'714.8
2017-Aug-12 10:00N 36°03' W 005°08'  
Track history (hours):
 
Tides and Currents Weather Stations Pressure Air Temp Water Temp Dewpoint Dewpoint Depression Visibility Wind Speed Wind Dir Waves Ship Positions

CMA CGM Tosca

Last reported at 2017-Aug-22 02:22 UTC. Time now 2017-Aug-22 20:37 UTC.
Position N 35°41' E 015°21'.

Length 334 m; draft 10.6 m.

Type: Cargo ship. MMSI: 228335900.

Date/timePositionNaut miles runAvg speedWind from/ knotsBaromVisibWave heightAir tempDewpointWater temp
2017-Aug-22 02:22N 35°41' E 015°21'819.7
2017-Aug-22 01:59N 35°44' E 015°13'1219.3
2017-Aug-22 01:21N 35°50' E 014°59'412.7
2017-Aug-22 01:00N 35°51' E 014°55'0 0.3
2017-Aug-22 00:30N 35°51' E 014°55'0 0.0
2017-Aug-22 00:00N 35°51' E 014°55'0 0.0
2017-Aug-21 23:30N 35°51' E 014°55'0 0.0
2017-Aug-21 23:00N 35°51' E 014°55'0 0.0
2017-Aug-21 22:30N 35°51' E 014°55'0 0.0
2017-Aug-21 22:00N 35°51' E 014°55'0 0.0
2017-Aug-21 21:24N 35°51' E 014°55'0 0.0
2017-Aug-21 20:57N 35°51' E 014°55'0 0.0
2017-Aug-21 20:30N 35°51' E 014°55'0 0.0
2017-Aug-21 19:57N 35°51' E 014°55'0 0.0
2017-Aug-21 19:30N 35°51' E 014°55'0 0.0
2017-Aug-21 19:00N 35°51' E 014°55'0 0.0
2017-Aug-21 18:30N 35°51' E 014°55'0 0.1
2017-Aug-21 18:00N 35°51' E 014°54'0 0.0
2017-Aug-21 17:21N 35°51' E 014°54'0 0.1
2017-Aug-21 16:57N 35°51' E 014°54'0 0.0
2017-Aug-21 16:30N 35°51' E 014°54'0 0.0
2017-Aug-21 16:00N 35°51' E 014°54'0 0.0
2017-Aug-21 15:27N 35°51' E 014°54'0 0.0
2017-Aug-21 14:57N 35°51' E 014°54'0 0.1
2017-Aug-21 14:30N 35°51' E 014°54'0 0.0
2017-Aug-21 14:00N 35°51' E 014°54'0 0.0
2017-Aug-21 13:30N 35°51' E 014°54'0 0.0
2017-Aug-21 13:00N 35°51' E 014°54'0 0.1
2017-Aug-21 12:30N 35°51' E 014°54'3 5.8
2017-Aug-21 12:00N 35°48' E 014°56'5 8.6
2017-Aug-21 11:27N 35°46' E 014°51'613.1
2017-Aug-21 11:00N 35°46' E 014°43'613.2
2017-Aug-21 10:30N 35°47' E 014°36'3 6.5
2017-Aug-21 10:00N 35°49' E 014°32'0 0.1
2017-Aug-21 09:29N 35°49' E 014°32'0 0.0
2017-Aug-21 06:02N 35°49' E 014°32'0 0.0
2017-Aug-21 05:44N 35°49' E 014°32'0 0.0
2017-Aug-21 05:29N 35°49' E 014°32'0 0.0
2017-Aug-21 00:26N 35°49' E 014°32'0 0.6
2017-Aug-21 00:00N 35°49' E 014°32'3 5.4
2017-Aug-20 23:30N 35°48' E 014°35'2 4.0
2017-Aug-20 23:00N 35°46' E 014°36'510.2
2017-Aug-20 22:29N 35°41' E 014°36'5 0.6
2017-Aug-20 14:13N 35°42' E 014°30'1 3.6
2017-Aug-20 14:00N 35°43' E 014°29'4 7.3
2017-Aug-20 13:30N 35°44' E 014°25'5 9.9
2017-Aug-20 13:00N 35°46' E 014°20'713.2
2017-Aug-20 12:30N 35°49' E 014°12'714.8
2017-Aug-20 12:00N 35°52' E 014°04'715.1
2017-Aug-20 11:30N 35°55' E 013°56'814.9
2017-Aug-20 10:59N 35°60' E 013°48'815.4
2017-Aug-20 10:30N 36°06' E 013°42'815.3
2017-Aug-20 10:00N 36°11' E 013°36'815.1
2017-Aug-20 09:30N 36°17' E 013°30'815.3
2017-Aug-20 09:00N 36°23' E 013°24'815.3
2017-Aug-20 08:30N 36°29' E 013°18'815.2
2017-Aug-20 08:00N 36°35' E 013°12'715.2
2017-Aug-20 07:30N 36°41' E 013°06'815.2
2017-Aug-20 07:00N 36°47' E 013°00'815.6
2017-Aug-20 06:30N 36°53' E 012°54'816.4
2017-Aug-20 06:00N 36°59' E 012°48'816.2
2017-Aug-20 05:30N 37°05' E 012°41'816.3
2017-Aug-20 05:00N 37°12' E 012°35'816.3
2017-Aug-20 04:30N 37°18' E 012°28'816.0
2017-Aug-20 04:00N 37°24' E 012°22'815.9
2017-Aug-20 03:30N 37°31' E 012°16'816.7
2017-Aug-20 03:00N 37°38' E 012°10'817.0
2017-Aug-20 02:30N 37°44' E 012°04'916.9
2017-Aug-20 01:58N 37°52' E 011°57'816.6
2017-Aug-20 01:29N 37°59' E 011°52'1016.4
2017-Aug-20 00:53N 38°08' E 011°47'616.1
2017-Aug-20 00:30N 38°13' E 011°45'816.2
2017-Aug-20 00:00N 38°21' E 011°42'816.1
2017-Aug-19 23:29N 38°29' E 011°38'816.2
2017-Aug-19 22:59N 38°37' E 011°34'816.1
2017-Aug-19 22:30N 38°44' E 011°31'816.0
2017-Aug-19 22:00N 38°52' E 011°28'815.9
2017-Aug-19 21:30N 38°59' E 011°25'815.9
2017-Aug-19 21:00N 39°07' E 011°21'815.9
2017-Aug-19 20:31N 39°14' E 011°18'815.9
2017-Aug-19 20:00N 39°22' E 011°15'816.0
2017-Aug-19 19:30N 39°29' E 011°11'816.1
2017-Aug-19 19:00N 39°37' E 011°08'816.1
2017-Aug-19 18:30N 39°44' E 011°04'816.0
2017-Aug-19 18:00N 39°52' E 011°01'816.0
2017-Aug-19 17:30N 39°60' E 010°58'816.2
2017-Aug-19 17:00N 40°07' E 010°54'816.0
2017-Aug-19 16:30N 40°15' E 010°51'816.1
2017-Aug-19 16:00N 40°22' E 010°47'816.2
2017-Aug-19 15:30N 40°30' E 010°44'816.1
2017-Aug-19 15:00N 40°38' E 010°40'2916.9
2017-Aug-19 13:18N 41°05' E 010°28'517.8
2017-Aug-19 13:00N 41°10' E 010°26'917.9
2017-Aug-19 12:30N 41°18' E 010°22'917.6
2017-Aug-19 12:00N 41°27' E 010°18'917.5
2017-Aug-19 11:30N 41°35' E 010°14'1017.5
2017-Aug-19 10:58N 41°44' E 010°10'817.4
2017-Aug-19 10:30N 41°51' E 010°06'1017.4
2017-Aug-19 09:57N 42°01' E 010°02'817.4
2017-Aug-19 09:30N 42°08' E 009°58'917.7
2017-Aug-19 09:00N 42°16' E 009°53'917.6
2017-Aug-19 08:28N 42°25' E 009°51'817.6
2017-Aug-19 08:00N 42°33' E 009°47'1017.9
2017-Aug-19 07:27N 42°42' E 009°41'817.5
2017-Aug-19 07:00N 42°49' E 009°39'817.0
2017-Aug-19 06:30N 42°58' E 009°36'816.9
2017-Aug-19 06:00N 43°06' E 009°34'816.3
2017-Aug-19 05:30N 43°13' E 009°30'816.4
2017-Aug-19 05:00N 43°21' E 009°26'816.7
2017-Aug-19 04:30N 43°29' E 009°22'816.3
2017-Aug-19 04:00N 43°37' E 009°18'816.0
2017-Aug-19 03:30N 43°44' E 009°15'815.9
2017-Aug-19 03:00N 43°52' E 009°11'815.9
2017-Aug-19 02:30N 43°59' E 009°06'815.5
2017-Aug-19 02:00N 44°07' E 009°04'713.2
2017-Aug-19 01:30N 44°13' E 009°01'713.3
2017-Aug-19 01:00N 44°19' E 008°58'510.1
2017-Aug-19 00:30N 44°24' E 008°55'1 1.1
2017-Aug-18 23:58N 44°24' E 008°55'0 0.0
2017-Aug-18 23:28N 44°24' E 008°55'0 0.0
2017-Aug-18 22:58N 44°24' E 008°55'0 0.0
2017-Aug-18 22:22N 44°24' E 008°55'0 0.0
2017-Aug-18 21:58N 44°24' E 008°55'0 0.0
2017-Aug-18 21:28N 44°24' E 008°55'0 0.0
2017-Aug-18 20:58N 44°24' E 008°55'0 0.0
2017-Aug-18 20:28N 44°24' E 008°55'0 0.0
2017-Aug-18 19:58N 44°24' E 008°55'0 0.0
2017-Aug-18 19:28N 44°24' E 008°55'0 0.0
2017-Aug-18 18:55N 44°24' E 008°55'0 0.0
2017-Aug-18 18:28N 44°24' E 008°55'0 0.0
2017-Aug-18 17:58N 44°24' E 008°55'0 0.0
2017-Aug-18 17:28N 44°24' E 008°55'0 0.0
2017-Aug-18 16:55N 44°24' E 008°55'0 0.0
2017-Aug-18 16:28N 44°24' E 008°55'0 0.0
2017-Aug-18 15:58N 44°24' E 008°55'0 0.0
2017-Aug-18 15:28N 44°24' E 008°55'0 0.0
2017-Aug-18 14:58N 44°24' E 008°55'0 0.0
2017-Aug-18 14:28N 44°24' E 008°55'0 0.0
2017-Aug-18 13:28N 44°24' E 008°55'0 0.0
2017-Aug-18 12:58N 44°24' E 008°55'0 0.0
2017-Aug-18 12:28N 44°24' E 008°55'0 0.0
2017-Aug-18 11:58N 44°24' E 008°55'0 0.0
2017-Aug-18 11:28N 44°24' E 008°55'0 0.0
2017-Aug-18 10:58N 44°24' E 008°55'0 0.0
2017-Aug-18 10:28N 44°24' E 008°55'0 0.0
2017-Aug-18 09:58N 44°24' E 008°55'0 0.0
2017-Aug-18 09:28N 44°24' E 008°55'0 0.0
2017-Aug-18 08:58N 44°24' E 008°55'0 0.0
2017-Aug-18 08:28N 44°24' E 008°55'0 0.0
2017-Aug-18 07:58N 44°24' E 008°55'0 0.0
2017-Aug-18 07:28N 44°24' E 008°55'0 0.0
2017-Aug-18 06:55N 44°24' E 008°55'0 0.0
2017-Aug-18 06:28N 44°24' E 008°55'0 0.0
2017-Aug-18 05:58N 44°24' E 008°55'0 0.0
2017-Aug-18 05:25N 44°24' E 008°55'0 0.0
2017-Aug-18 04:55N 44°24' E 008°55'0 0.0
2017-Aug-18 04:28N 44°24' E 008°55'0 0.6
2017-Aug-18 04:00N 44°24' E 008°55'2 3.9
2017-Aug-18 03:30N 44°23' E 008°57'2 4.2
2017-Aug-18 03:00N 44°21' E 008°58'510.2
2017-Aug-18 02:30N 44°16' E 008°57'612.0
2017-Aug-18 02:00N 44°10' E 008°55'713.1
2017-Aug-18 01:30N 44°04' E 008°52'713.3
2017-Aug-18 01:00N 43°59' E 008°47'713.1
2017-Aug-18 00:30N 43°53' E 008°41'613.0
2017-Aug-18 00:00N 43°48' E 008°36'612.9
2017-Aug-17 23:30N 43°43' E 008°31'612.9
2017-Aug-17 23:00N 43°38' E 008°26'613.0
2017-Aug-17 22:30N 43°32' E 008°20'713.1
2017-Aug-17 22:00N 43°27' E 008°15'713.1
2017-Aug-17 21:30N 43°22' E 008°09'713.1
2017-Aug-17 21:00N 43°17' E 008°03'713.0
2017-Aug-17 20:30N 43°14' E 007°56'612.9
2017-Aug-17 20:00N 43°10' E 007°48'713.1
2017-Aug-17 19:30N 43°07' E 007°41'713.1
2017-Aug-17 19:00N 43°04' E 007°33'713.0
2017-Aug-17 18:30N 43°00' E 007°25'714.0
2017-Aug-17 18:00N 42°56' E 007°17'714.0
2017-Aug-17 17:31N 42°52' E 007°10'713.8
2017-Aug-17 17:00N 42°49' E 007°02'713.9
2017-Aug-17 16:30N 42°45' E 006°54'713.7
2017-Aug-17 16:01N 42°41' E 006°46'713.2
2017-Aug-17 15:31N 42°36' E 006°39'714.2
2017-Aug-17 15:00N 42°32' E 006°32'714.5
2017-Aug-17 14:30N 42°27' E 006°24'714.3
2017-Aug-17 14:00N 42°23' E 006°17'714.3
2017-Aug-17 13:30N 42°19' E 006°09'714.5
2017-Aug-17 13:00N 42°14' E 006°01'714.6
2017-Aug-17 12:30N 42°10' E 005°54'714.4
2017-Aug-17 12:01N 42°05' E 005°46'714.3
2017-Aug-17 11:31N 42°01' E 005°39'714.3
2017-Aug-17 11:01N 41°56' E 005°31'714.1
2017-Aug-17 10:30N 41°52' E 005°24'714.1
2017-Aug-17 10:01N 41°47' E 005°16'714.0
2017-Aug-17 09:30N 41°43' E 005°09'713.9
2017-Aug-17 09:01N 41°39' E 005°02'713.4
2017-Aug-17 08:27N 41°34' E 004°54'613.8
2017-Aug-17 08:00N 41°30' E 004°47'6414.1
2017-Aug-17 03:29N 40°51' E 003°41'714.3
2017-Aug-17 03:00N 40°47' E 003°34'714.3
2017-Aug-17 02:30N 40°42' E 003°26'714.2
2017-Aug-17 02:00N 40°38' E 003°19'714.3
2017-Aug-17 01:29N 40°33' E 003°11'714.1
2017-Aug-17 01:00N 40°29' E 003°04'713.8
2017-Aug-17 00:30N 40°25' E 002°57'713.8
2017-Aug-17 00:00N 40°21' E 002°50'713.8
2017-Aug-16 23:30N 40°16' E 002°43'713.7
2017-Aug-16 23:00N 40°12' E 002°36'714.0
2017-Aug-16 22:30N 40°07' E 002°29'714.1
2017-Aug-16 22:00N 40°03' E 002°22'714.1
2017-Aug-16 21:30N 39°59' E 002°14'714.2
2017-Aug-16 21:00N 39°54' E 002°07'714.1
2017-Aug-16 20:30N 39°50' E 001°60'714.0
2017-Aug-16 20:00N 39°46' E 001°53'714.1
2017-Aug-16 19:30N 39°41' E 001°46'714.2
2017-Aug-16 19:00N 39°37' E 001°38'714.2
2017-Aug-16 18:30N 39°32' E 001°31'714.3
2017-Aug-16 18:00N 39°28' E 001°24'814.3
2017-Aug-16 17:25N 39°23' E 001°15'614.0
2017-Aug-16 17:00N 39°19' E 001°09'714.0
2017-Aug-16 16:30N 39°15' E 001°02'713.8
2017-Aug-16 16:00N 39°10' E 000°55'1 1.5
2017-Aug-16 15:30N 39°11' E 000°55'712.9
2017-Aug-16 15:00N 39°07' E 000°49'713.5
2017-Aug-16 14:30N 39°01' E 000°44'713.6
2017-Aug-16 14:00N 38°55' E 000°40'813.5
2017-Aug-16 13:26N 38°49' E 000°35'913.7
2017-Aug-16 12:47N 38°41' E 000°28'613.9
2017-Aug-16 12:21N 38°36' E 000°24'614.4
2017-Aug-16 11:55N 38°31' E 000°20'718.2
2017-Aug-16 11:30N 38°26' E 000°13'1019.7
2017-Aug-16 11:00N 38°17' E 000°07'1019.7
2017-Aug-16 10:30N 38°09' W 000°00'1019.9
2017-Aug-16 10:00N 38°01' W 000°08'1020.0
2017-Aug-16 09:30N 37°53' W 000°15'1019.8
2017-Aug-16 09:00N 37°44' W 000°22'1020.0
2017-Aug-16 08:30N 37°36' W 000°28'1019.8
2017-Aug-16 08:00N 37°29' W 000°37'1020.2
2017-Aug-16 07:30N 37°22' W 000°47'1020.8
2017-Aug-16 07:00N 37°16' W 000°57'1019.3
2017-Aug-16 06:29N 37°08' W 001°06'20618.6
2017-Aug-15 19:25N 35°60' W 005°08'819.9
2017-Aug-15 19:01N 35°59' W 005°18'816.9
2017-Aug-15 18:31N 35°58' W 005°28'8 0.6
2017-Aug-15 05:43N 35°54' W 005°37'1 4.5
2017-Aug-15 05:30N 35°54' W 005°38'9 5.5
2017-Aug-15 03:49N 35°54' W 005°49'2 8.0
2017-Aug-15 03:30N 35°53' W 005°52'7 7.8
2017-Aug-15 02:39N 35°52' W 006°00'3 0.1
2017-Aug-13 22:52N 35°52' W 006°05'612.2
2017-Aug-13 22:25N 35°56' W 006°00'813.1
2017-Aug-13 21:49N 35°57' W 005°51'510.2
2017-Aug-13 21:22N 35°57' W 005°45'3 8.4
2017-Aug-13 21:00N 35°57' W 005°41'5 8.7
2017-Aug-13 20:27N 35°57' W 005°35'4 9.4
2017-Aug-13 20:01N 35°59' W 005°30'612.0
2017-Aug-13 19:30N 36°00' W 005°23'816.5
2017-Aug-13 19:01N 36°01' W 005°13'815.3
2017-Aug-13 18:30N 36°02' W 005°04'4 2.0
2017-Aug-13 16:29N 35°58' W 005°05'817.5
2017-Aug-13 16:00N 35°58' W 005°15'816.5
2017-Aug-13 15:30N 35°57' W 005°25'813.5
2017-Aug-13 14:55N 35°55' W 005°35'2 2.9
2017-Aug-13 14:04N 35°54' W 005°37'0 3.4
2017-Aug-13 14:00N 35°54' W 005°38'2 3.3
2017-Aug-13 13:29N 35°54' W 005°40'1 2.9
2017-Aug-13 13:00N 35°53' W 005°41'5 3.9
2017-Aug-13 11:48N 35°54' W 005°47'712.5
2017-Aug-13 11:16N 35°55' W 005°55'2 7.0
2017-Aug-13 10:59N 35°53' W 005°57'3 0.5
2017-Aug-13 04:50N 35°52' W 006°01'4 8.5
2017-Aug-13 04:24N 35°52' W 006°06'6 0.4
2017-Aug-12 13:20N 35°57' W 005°60'813.3
2017-Aug-12 12:42N 35°57' W 005°49'313.8
2017-Aug-12 12:30N 35°57' W 005°46'912.5
2017-Aug-12 11:47N 35°57' W 005°35'311.8
2017-Aug-12 11:30N 35°58' W 005°31'611.4
2017-Aug-12 11:00N 35°60' W 005°24'612.0
2017-Aug-12 10:30N 36°01' W 005°17'714.8
2017-Aug-12 10:00N 36°03' W 005°08'  

Dump ship's entire track history